N55169 KICT-KICT
Flight info
| Callsign | N55169 |
|---|---|
| Flight time | 0h 4m |
| Altitude | 3500 |
| Route | KICT NB TOWARDS KEGT PRACTICE 5 NM OUT RETURNING TO KICT |
| Aircraft | C172/L-S/C |
Departure
| Time | 2026-05-04 00:09 |
|---|---|
| Airport | Wichita Dwight D. Eisenhower National Airport (KICT) |
Arrival
| Time | 2026-05-04 00:14 |
|---|---|
| Airport | Wichita Dwight D. Eisenhower National Airport (KICT) |
| Time | Latitude | Longitude | Altitude | Speed | Heading |
|---|---|---|---|---|---|
| 2026-05-03 23:52 | 37.64505 | -97.41742 | 1309 ft | 0 kts | 181° |
| 2026-05-03 23:56 | 37.64504 | -97.41742 | 1309 ft | 2 kts | 181° |
| 2026-05-03 23:56 | 37.64500 | -97.41718 | 1309 ft | 0 kts | 26° |
| 2026-05-03 23:56 | 37.64500 | -97.41715 | 1309 ft | 0 kts | 99° |
| 2026-05-03 23:57 | 37.64498 | -97.41715 | 1309 ft | 0 kts | 232° |
| 2026-05-03 23:57 | 37.64497 | -97.41720 | 1309 ft | 2 kts | 249° |
| 2026-05-03 23:57 | 37.64494 | -97.41751 | 1309 ft | 3 kts | 273° |
| 2026-05-03 23:57 | 37.64495 | -97.41786 | 1310 ft | 4 kts | 269° |
| 2026-05-03 23:58 | 37.64495 | -97.41812 | 1311 ft | 1 kts | 271° |
| 2026-05-03 23:58 | 37.64495 | -97.41824 | 1311 ft | 1 kts | 268° |
| 2026-05-03 23:58 | 37.64494 | -97.41862 | 1311 ft | 7 kts | 272° |
| 2026-05-03 23:58 | 37.64489 | -97.41928 | 1313 ft | 3 kts | 186° |
| 2026-05-03 23:59 | 37.64493 | -97.41924 | 1313 ft | 2 kts | 16° |
| 2026-05-03 23:59 | 37.64519 | -97.41937 | 1313 ft | 5 kts | 327° |
| 2026-05-03 23:59 | 37.64558 | -97.41976 | 1314 ft | 7 kts | 312° |
| 2026-05-03 23:59 | 37.64531 | -97.42007 | 1314 ft | 7 kts | 183° |
| 2026-05-04 00:00 | 37.64478 | -97.42010 | 1314 ft | 7 kts | 180° |
| 2026-05-04 00:00 | 37.64424 | -97.42009 | 1314 ft | 7 kts | 179° |
| 2026-05-04 00:00 | 37.64369 | -97.42010 | 1314 ft | 8 kts | 181° |
| 2026-05-04 00:00 | 37.64310 | -97.42011 | 1314 ft | 9 kts | 183° |
| 2026-05-04 00:01 | 37.64240 | -97.42013 | 1312 ft | 10 kts | 179° |
| 2026-05-04 00:01 | 37.64171 | -97.42035 | 1312 ft | 10 kts | 249° |
| 2026-05-04 00:01 | 37.64171 | -97.42114 | 1313 ft | 8 kts | 276° |
| 2026-05-04 00:01 | 37.64173 | -97.42194 | 1314 ft | 9 kts | 274° |
| 2026-05-04 00:02 | 37.64180 | -97.42284 | 1314 ft | 10 kts | 281° |
| 2026-05-04 00:02 | 37.64206 | -97.42364 | 1315 ft | 8 kts | 294° |
| 2026-05-04 00:02 | 37.64227 | -97.42431 | 1316 ft | 7 kts | 289° |
| 2026-05-04 00:02 | 37.64244 | -97.42493 | 1316 ft | 7 kts | 290° |
| 2026-05-04 00:03 | 37.64252 | -97.42523 | 1317 ft | 0 kts | 291° |
| 2026-05-04 00:07 | 37.64252 | -97.42524 | 1317 ft | 1 kts | 289° |
| 2026-05-04 00:07 | 37.64271 | -97.42579 | 1317 ft | 12 kts | 310° |
| 2026-05-04 00:08 | 37.64418 | -97.42574 | 1317 ft | 41 kts | 14° |
| 2026-05-04 00:08 | 37.64824 | -97.42362 | 1318 ft | 82 kts | 16° |
| 2026-05-04 00:08 | 37.65393 | -97.42111 | 1429 ft | 90 kts | 15° |
| 2026-05-04 00:08 | 37.65980 | -97.41765 | 1545 ft | 95 kts | 28° |
| 2026-05-04 00:09 | 37.66587 | -97.41463 | 1659 ft | 91 kts | 8° |
| 2026-05-04 00:09 | 37.67217 | -97.41219 | 1732 ft | 99 kts | 10° |
| 2026-05-04 00:09 | 37.67865 | -97.40897 | 1816 ft | 104 kts | 29° |
| 2026-05-04 00:09 | 37.68312 | -97.40242 | 1960 ft | 98 kts | 76° |
| 2026-05-04 00:10 | 37.68288 | -97.39412 | 1987 ft | 90 kts | 129° |
| 2026-05-04 00:10 | 37.67883 | -97.38995 | 2025 ft | 65 kts | 199° |
| 2026-05-04 00:10 | 37.67467 | -97.39314 | 1955 ft | 72 kts | 223° |
| 2026-05-04 00:10 | 37.67084 | -97.39704 | 1951 ft | 71 kts | 221° |
| 2026-05-04 00:11 | 37.66715 | -97.40115 | 1883 ft | 69 kts | 225° |
| 2026-05-04 00:11 | 37.66328 | -97.40464 | 1825 ft | 67 kts | 212° |
| 2026-05-04 00:11 | 37.65886 | -97.40670 | 1745 ft | 69 kts | 206° |
| 2026-05-04 00:11 | 37.65437 | -97.40884 | 1652 ft | 68 kts | 207° |
| 2026-05-04 00:12 | 37.65006 | -97.41052 | 1617 ft | 63 kts | 195° |
| 2026-05-04 00:12 | 37.64565 | -97.41067 | 1577 ft | 60 kts | 194° |
| 2026-05-04 00:12 | 37.64158 | -97.41155 | 1512 ft | 58 kts | 203° |
| 2026-05-04 00:12 | 37.63813 | -97.41369 | 1465 ft | 53 kts | 221° |
| 2026-05-04 00:13 | 37.63578 | -97.41747 | 1391 ft | 54 kts | 236° |
| 2026-05-04 00:13 | 37.63417 | -97.42154 | 1389 ft | 50 kts | 242° |
| 2026-05-04 00:13 | 37.63376 | -97.42602 | 1383 ft | 53 kts | 273° |
| 2026-05-04 00:13 | 37.63724 | -97.42863 | 1352 ft | 73 kts | 356° |
| 2026-05-04 00:14 | 37.64215 | -97.42671 | 1334 ft | 71 kts | 19° |
| 2026-05-04 00:14 | 37.64601 | -97.42467 | 1317 ft | 50 kts | 16° |
| 2026-05-04 00:14 | 37.64845 | -97.42287 | 1317 ft | 31 kts | 118° |
| 2026-05-04 00:14 | 37.64820 | -97.42233 | 1317 ft | 0 kts | 117° |
| 2026-05-04 00:15 | 37.64819 | -97.42228 | 1317 ft | 3 kts | 118° |
| 2026-05-04 00:15 | 37.64774 | -97.42167 | 1316 ft | 14 kts | 144° |
| 2026-05-04 00:15 | 37.64772 | -97.42069 | 1314 ft | 13 kts | 58° |
| 2026-05-04 00:15 | 37.64824 | -97.41976 | 1314 ft | 12 kts | 55° |
| 2026-05-04 00:16 | 37.64865 | -97.41921 | 1314 ft | 4 kts | 46° |
| 2026-05-04 00:16 | 37.64868 | -97.41914 | 1313 ft | 0 kts | 64° |
| 2026-05-04 00:16 | 37.64869 | -97.41908 | 1313 ft | 0 kts | 87° |